Ely Municipal Airport
KELO : rendu visible

Aérodrome :











RETROUVEZ-NOUS SUR...

 
LOGIN :

S'inscrire | Disclaimer

   EN    FR    IT 

 









Légende :    VFR   VFR Marginal   IFR   IFR Intensif   IFR Très Intensif
Visi : 
Plafond : 
>= 8 km
>= 3000ft
5 à 8 km
1000 à 3000 ft
1500m à 5 km
500 à 1000 ft
800 à 1500m
200 à 500 ft
< 800m
< 200 ft
Symboles :   Orages  Brouillard  Fortes neiges  Fortes précipitations  Vent > 20 kt







- Altitude de l'aérodrome : 1456 ft


KELO - Ely Municipal

DERNIER METAR :
  • 251039Z AUTO 15005KT 10SM OVC047 14/12 A3010 RMK AO2

METARs EXPIRÉS :
  • 251016Z AUTO 15006KT 10SM OVC047 14/12 A3010 RMK AO2
  • 250956Z AUTO 16004KT 10SM OVC047 14/12 A3010 RMK AO2
  • 250936Z AUTO 14006KT 10SM OVC047 14/12 A3010 RMK AO2
  • 250917Z AUTO 14005KT 10SM OVC047 13/12 A3010 RMK AO2
  • 250859Z AUTO 15004KT 10SM OVC045 13/12 A3011 RMK AO2
  • 250855Z AUTO 15004KT 10SM OVC045 13/12 A3011 RMK AO2
  • 250835Z AUTO 15005KT 10SM BKN045 13/11 A3010 RMK AO2
  • 250816Z AUTO 15005KT 10SM BKN043 13/12 A3011 RMK AO2

TAF N/A
Pas de NOTAMs connus pour ce terrain.



MET'MAP, la Météo Aéronautique d'un coup d'oeil ! - Copyright ORBIFLY Décembre 2007 - Disclaimer

ORBIFLY MET'MAP TEAM :

Programmation & Développement : Alexandra Zaïnal
Conception & Développement : Baudouin d'Aumeries
Co-Programmation & Développement : Marc-Olivier Méhu
Soutien technique & logistique : Manuel Goepfert

Contact : metmap@orbifly.com




SOURCES & CREDITS :

   NOAA       Earth
Advisory